createdAt,value
2023-03-04T00:00:31.820Z,8.78
2023-03-04T00:02:58.927Z,8.68
2023-03-04T00:05:25.908Z,8.63
2023-03-04T00:07:55.777Z,8.58
2023-03-04T00:10:25.620Z,8.54
2023-03-04T00:12:52.710Z,8.46
2023-03-04T00:15:19.615Z,8.54
2023-03-04T00:17:46.883Z,8.30
2023-03-04T00:20:17.425Z,8.04
2023-03-04T00:22:44.423Z,8.20
2023-03-04T00:25:11.472Z,8.40
2023-03-04T00:27:40.803Z,8.00
2023-03-04T00:30:12.448Z,7.91
2023-03-04T00:32:41.864Z,8.14
2023-03-04T00:35:11.281Z,8.32
2023-03-04T00:37:43.874Z,8.27
2023-03-04T00:40:11.778Z,8.17
2023-03-04T00:42:38.742Z,8.29
2023-03-04T00:45:09.486Z,8.40
2023-03-04T00:47:38.704Z,8.44
2023-03-04T00:50:08.852Z,8.23
2023-03-04T00:52:38.145Z,7.97
2023-03-04T00:55:08.736Z,7.87
2023-03-04T00:57:35.907Z,8.16
2023-03-04T01:00:03.354Z,8.30
2023-03-04T01:02:30.324Z,8.29
2023-03-04T01:04:59.782Z,8.42
2023-03-04T01:07:26.678Z,8.26
2023-03-04T01:09:53.589Z,8.36
2023-03-04T01:12:20.454Z,8.39
2023-03-04T01:14:47.455Z,8.40
2023-03-04T01:17:17.333Z,8.40
2023-03-04T01:19:49.114Z,8.38
2023-03-04T01:22:19.187Z,8.32
2023-03-04T01:24:49.086Z,8.41
2023-03-04T01:27:15.988Z,8.50
2023-03-04T01:29:47.538Z,8.53
2023-03-04T01:32:14.699Z,8.52
2023-03-04T01:34:41.666Z,8.32
2023-03-04T01:37:09.389Z,8.61
2023-03-04T01:39:36.243Z,8.35
2023-03-04T01:42:03.172Z,8.24
2023-03-04T01:44:30.155Z,8.48
2023-03-04T01:46:57.344Z,8.71
2023-03-04T01:49:28.815Z,8.65
2023-03-04T01:51:55.833Z,8.73
2023-03-04T01:54:23.390Z,8.76
2023-03-04T01:56:54.631Z,8.77
2023-03-04T01:59:27.016Z,8.73
2023-03-04T02:01:59.836Z,8.77
2023-03-04T02:04:34.321Z,8.58
2023-03-04T02:07:03.194Z,8.44
2023-03-04T02:09:31.741Z,8.61
2023-03-04T02:12:01.978Z,8.54
2023-03-04T02:14:31.536Z,8.57
2023-03-04T02:16:58.891Z,8.65
2023-03-04T02:19:50.632Z,8.55
2023-03-04T02:22:17.765Z,8.43
2023-03-04T02:24:55.660Z,8.54
2023-03-04T02:27:22.871Z,8.70
2023-03-04T02:29:49.953Z,8.51
2023-03-04T02:32:17.241Z,8.35
2023-03-04T02:34:52.229Z,8.40
2023-03-04T02:37:20.258Z,8.57
2023-03-04T02:39:48.897Z,8.64
2023-03-04T02:42:18.407Z,8.62
2023-03-04T02:44:49.093Z,8.52
2023-03-04T02:47:18.776Z,8.42
2023-03-04T02:49:46.618Z,8.55
2023-03-04T02:52:19.414Z,8.70
2023-03-04T02:54:48.997Z,8.85
2023-03-04T02:57:19.220Z,8.95
2023-03-04T02:59:48.671Z,8.70
2023-03-04T03:02:18.095Z,8.65
2023-03-04T03:04:45.169Z,8.80
2023-03-04T03:07:17.174Z,8.64
2023-03-04T03:09:44.099Z,8.52
2023-03-04T03:12:11.018Z,8.54
2023-03-04T03:14:37.867Z,8.71
2023-03-04T03:17:04.885Z,8.61
2023-03-04T03:19:31.961Z,8.61
2023-03-04T03:22:01.089Z,8.60
2023-03-04T03:24:30.476Z,8.82
2023-03-04T03:26:57.374Z,8.87
2023-03-04T03:29:24.367Z,8.58
2023-03-04T03:31:51.444Z,8.55
2023-03-04T03:34:22.846Z,8.68
2023-03-04T03:36:52.380Z,8.83
2023-03-04T03:39:20.050Z,8.83
2023-03-04T03:41:47.002Z,8.94
2023-03-04T03:44:16.130Z,8.84
2023-03-04T03:46:43.070Z,8.79
2023-03-04T03:49:09.983Z,8.82
2023-03-04T03:51:36.868Z,8.91
2023-03-04T03:54:06.575Z,8.93
2023-03-04T03:56:35.924Z,8.95
2023-03-04T03:59:02.860Z,8.68
2023-03-04T04:01:29.843Z,8.77
2023-03-04T04:03:56.922Z,8.90
2023-03-04T04:06:23.786Z,8.84
2023-03-04T04:08:50.734Z,8.77
2023-03-04T04:11:20.152Z,8.64
2023-03-04T04:13:49.266Z,8.63
2023-03-04T04:16:16.343Z,8.77
2023-03-04T04:18:46.206Z,8.57
2023-03-04T04:21:13.972Z,8.50
2023-03-04T04:23:45.714Z,8.52
2023-03-04T04:26:12.641Z,8.52
2023-03-04T04:28:39.574Z,8.44
2023-03-04T04:31:12.224Z,8.58
2023-03-04T04:33:43.988Z,8.35
2023-03-04T04:36:17.036Z,8.51
2023-03-04T04:38:44.493Z,8.53
2023-03-04T04:41:23.040Z,8.38
2023-03-04T04:43:54.634Z,8.31
2023-03-04T04:46:25.995Z,8.45
2023-03-04T04:48:55.268Z,8.42
2023-03-04T04:51:22.281Z,8.48
2023-03-04T04:53:54.807Z,8.34
2023-03-04T04:56:26.320Z,8.39
2023-03-04T04:58:57.386Z,8.44
2023-03-04T05:01:27.956Z,8.53
2023-03-04T05:03:55.619Z,8.66
2023-03-04T05:06:24.522Z,8.61
2023-03-04T05:08:52.308Z,8.70
2023-03-04T05:11:20.272Z,8.56
2023-03-04T05:13:50.151Z,8.34
2023-03-04T05:16:22.541Z,8.28
2023-03-04T05:18:49.511Z,8.57
2023-03-04T05:21:16.473Z,8.47
2023-03-04T05:23:44.264Z,8.61
2023-03-04T05:26:18.674Z,8.53
2023-03-04T05:28:45.980Z,8.49
2023-03-04T05:31:15.437Z,8.40
2023-03-04T05:33:44.858Z,8.41
2023-03-04T05:36:11.898Z,8.48
2023-03-04T05:38:41.084Z,8.42
2023-03-04T05:41:10.462Z,8.35
2023-03-04T05:43:38.479Z,8.28
2023-03-04T05:46:05.698Z,8.31
2023-03-04T05:48:35.607Z,8.44
2023-03-04T05:51:06.025Z,8.40
2023-03-04T05:53:40.148Z,8.46
2023-03-04T05:56:10.041Z,8.39
2023-03-04T05:58:37.216Z,8.28
2023-03-04T06:01:04.950Z,8.27
2023-03-04T06:03:34.581Z,8.18
2023-03-04T06:06:04.042Z,8.16
2023-03-04T06:08:33.240Z,8.33
2023-03-04T06:11:00.513Z,8.32
2023-03-04T06:13:29.731Z,8.47
2023-03-04T06:16:00.794Z,8.51
2023-03-04T06:18:29.582Z,8.39
2023-03-04T06:21:02.040Z,8.31
2023-03-04T06:23:30.176Z,8.03
2023-03-04T06:25:59.781Z,8.29
2023-03-04T06:28:27.237Z,8.26
2023-03-04T06:30:58.163Z,8.41
2023-03-04T06:33:25.690Z,8.29
2023-03-04T06:35:57.640Z,8.24
2023-03-04T06:38:26.146Z,8.21
2023-03-04T06:40:54.307Z,8.26
2023-03-04T06:43:23.119Z,8.24
2023-03-04T06:45:50.038Z,8.25
2023-03-04T06:48:19.177Z,8.19
2023-03-04T06:50:48.542Z,8.22
2023-03-04T06:53:18.451Z,8.21
2023-03-04T06:55:45.318Z,8.17
2023-03-04T06:58:17.532Z,8.27
2023-03-04T07:00:47.032Z,8.12
2023-03-04T07:03:16.486Z,8.02
2023-03-04T07:05:43.851Z,7.91
2023-03-04T07:08:13.321Z,7.87
2023-03-04T07:10:40.178Z,7.96
2023-03-04T07:13:07.198Z,7.92
2023-03-04T07:15:38.760Z,8.07
2023-03-04T07:18:05.698Z,7.97
2023-03-04T07:20:32.915Z,8.22
2023-03-04T07:23:02.200Z,8.37
2023-03-04T07:25:32.543Z,8.40
2023-03-04T07:27:59.499Z,8.65
2023-03-04T07:30:26.479Z,8.65
2023-03-04T07:32:54.121Z,8.47
2023-03-04T07:35:24.100Z,8.39
2023-03-04T07:37:54.038Z,8.38
2023-03-04T07:40:23.568Z,8.40
2023-03-04T07:42:55.393Z,8.39
2023-03-04T07:45:24.297Z,8.06
2023-03-04T07:47:54.254Z,8.25
2023-03-04T07:50:22.419Z,8.24
2023-03-04T07:52:51.996Z,8.51
2023-03-04T07:55:21.116Z,8.45
2023-03-04T07:57:50.786Z,8.36
2023-03-04T08:00:22.065Z,8.34
2023-03-04T08:02:49.112Z,8.29
2023-03-04T08:05:16.162Z,8.25
2023-03-04T08:07:43.253Z,8.34
2023-03-04T08:10:11.311Z,8.35
2023-03-04T08:12:38.219Z,8.27
2023-03-04T08:15:08.722Z,8.30
2023-03-04T08:17:35.936Z,8.20
2023-03-04T08:20:02.989Z,8.35
2023-03-04T08:22:32.918Z,8.20
2023-03-04T08:24:59.919Z,8.38
2023-03-04T08:27:26.741Z,8.27
2023-03-04T08:29:55.872Z,8.44
2023-03-04T08:32:23.037Z,8.51
2023-03-04T08:34:49.957Z,8.48
2023-03-04T08:37:16.900Z,8.51
2023-03-04T08:39:46.150Z,8.32
2023-03-04T08:42:17.943Z,8.44
2023-03-04T08:44:45.545Z,8.49
2023-03-04T08:47:17.332Z,8.43
2023-03-04T08:49:44.548Z,8.53
2023-03-04T08:52:16.147Z,8.82
2023-03-04T08:54:46.022Z,9.08
2023-03-04T08:57:13.024Z,9.11
2023-03-04T08:59:39.892Z,9.11
2023-03-04T09:02:10.526Z,8.93
2023-03-04T09:04:37.631Z,8.93
2023-03-04T09:07:07.482Z,8.57
2023-03-04T09:09:34.433Z,8.60
2023-03-04T09:12:01.949Z,8.49
2023-03-04T09:14:28.989Z,8.48
2023-03-04T09:16:58.921Z,8.76
2023-03-04T09:19:30.482Z,8.95
2023-03-04T09:21:59.963Z,9.12
2023-03-04T09:24:27.265Z,8.63
2023-03-04T09:26:56.628Z,8.66
2023-03-04T09:29:23.608Z,8.64
2023-03-04T09:31:52.760Z,8.85
2023-03-04T09:34:19.746Z,8.48
2023-03-04T09:36:47.767Z,8.62
2023-03-04T09:39:14.751Z,8.49
2023-03-04T09:41:49.094Z,8.69
2023-03-04T09:44:36.781Z,8.55
2023-03-04T09:47:13.797Z,8.77
2023-03-04T09:49:45.595Z,8.79
2023-03-04T09:52:21.219Z,8.86
2023-03-04T09:55:04.982Z,8.80
2023-03-04T09:58:06.981Z,8.37
2023-03-04T10:01:01.586Z,8.29
2023-03-04T10:04:00.021Z,8.40
2023-03-04T10:06:28.789Z,8.56
2023-03-04T10:09:15.941Z,8.85
2023-03-04T10:12:23.552Z,8.63
2023-03-04T10:15:07.679Z,8.50
2023-03-04T10:17:48.339Z,8.45
2023-03-04T10:20:34.499Z,8.67
2023-03-04T10:23:17.378Z,8.36
2023-03-04T10:25:51.682Z,8.65
2023-03-04T10:28:26.980Z,9.02
2023-03-04T10:31:05.196Z,9.14
2023-03-04T10:33:35.797Z,8.99
2023-03-04T10:36:30.985Z,8.97
2023-03-04T10:39:02.621Z,9.21
2023-03-04T10:41:30.986Z,9.34
2023-03-04T10:44:10.038Z,9.08
2023-03-04T10:46:44.159Z,9.05
2023-03-04T10:49:15.038Z,9.41
2023-03-04T10:51:48.345Z,9.50
2023-03-04T10:54:49.909Z,9.34
2023-03-04T10:57:27.240Z,9.53
2023-03-04T10:59:59.209Z,9.56
2023-03-04T11:02:31.529Z,9.30
2023-03-04T11:05:15.610Z,9.19
2023-03-04T11:07:55.729Z,8.96
2023-03-04T11:10:40.102Z,8.75
2023-03-04T11:13:22.706Z,8.96
2023-03-04T11:16:01.104Z,8.78
2023-03-04T11:18:50.743Z,9.33
2023-03-04T11:21:27.779Z,9.51
2023-03-04T11:24:02.801Z,9.60
2023-03-04T11:26:55.875Z,9.80
2023-03-04T11:29:46.516Z,9.60
2023-03-04T11:32:22.891Z,9.54
2023-03-04T11:35:12.856Z,9.67
2023-03-04T11:37:47.819Z,9.71
2023-03-04T11:40:45.113Z,9.63
2023-03-04T11:43:22.463Z,9.30
2023-03-04T11:46:11.595Z,8.93
2023-03-04T11:49:15.625Z,8.51
2023-03-04T11:52:10.366Z,8.81
2023-03-04T11:55:14.006Z,8.66
2023-03-04T11:57:46.602Z,8.64
2023-03-04T12:00:37.836Z,8.79
2023-03-04T12:03:29.340Z,9.50
2023-03-04T12:06:35.344Z,9.54
2023-03-04T12:09:30.027Z,9.70
2023-03-04T12:12:24.403Z,9.65
2023-03-04T12:15:32.730Z,9.39
2023-03-04T12:18:12.943Z,9.34
2023-03-04T12:21:05.220Z,9.46
2023-03-04T12:23:45.807Z,9.52
2023-03-04T12:26:37.019Z,9.71
2023-03-04T12:29:29.448Z,9.60
2023-03-04T12:32:11.284Z,10.05
2023-03-04T12:34:56.308Z,10.06
2023-03-04T12:37:41.918Z,10.44
2023-03-04T12:40:42.212Z,10.42
2023-03-04T12:43:32.253Z,10.39
2023-03-04T12:46:22.645Z,10.19
2023-03-04T12:49:22.935Z,10.03
2023-03-04T12:51:58.536Z,9.94
2023-03-04T12:54:47.809Z,9.73
2023-03-04T12:57:23.467Z,9.75
2023-03-04T12:59:52.399Z,9.68
2023-03-04T13:03:14.305Z,9.55
2023-03-04T13:06:10.557Z,9.87
2023-03-04T13:08:58.621Z,10.94
2023-03-04T13:11:29.067Z,11.61
2023-03-04T13:14:17.316Z,11.56
2023-03-04T13:16:46.880Z,11.47
2023-03-04T13:19:48.283Z,10.81
2023-03-04T13:22:34.994Z,11.12
2023-03-04T13:25:37.509Z,10.89
2023-03-04T13:28:25.614Z,11.07
2023-03-04T13:30:56.016Z,10.72
2023-03-04T13:33:22.932Z,10.66
2023-03-04T13:35:54.669Z,10.71
2023-03-04T13:38:26.727Z,10.84
2023-03-04T13:41:27.534Z,10.47
2023-03-04T13:44:03.667Z,10.38
2023-03-04T13:46:50.913Z,10.55
2023-03-04T13:49:24.568Z,10.64
2023-03-04T13:51:52.864Z,10.63
2023-03-04T13:54:19.726Z,10.44
2023-03-04T13:57:21.230Z,10.17
2023-03-04T13:59:58.384Z,10.13
2023-03-04T14:02:28.715Z,9.76
2023-03-04T14:05:00.223Z,9.82
2023-03-04T14:07:35.206Z,9.77
2023-03-04T14:10:07.832Z,9.79
2023-03-04T14:12:58.132Z,10.48
2023-03-04T14:15:28.812Z,12.32
2023-03-04T14:18:01.501Z,12.34
2023-03-04T14:20:41.882Z,12.23
2023-03-04T14:23:31.122Z,11.08
2023-03-04T14:26:18.004Z,10.64
2023-03-04T14:28:52.267Z,10.39
2023-03-04T14:31:22.936Z,10.23
2023-03-04T14:33:59.635Z,10.01
2023-03-04T14:36:28.095Z,9.93
2023-03-04T14:39:01.910Z,9.85
2023-03-04T14:41:40.113Z,9.93
2023-03-04T14:44:09.960Z,9.74
2023-03-04T14:47:09.985Z,9.71
2023-03-04T14:49:40.296Z,9.65
2023-03-04T14:52:26.158Z,9.77
2023-03-04T14:55:26.955Z,9.68
2023-03-04T14:58:09.369Z,9.82
2023-03-04T15:00:41.460Z,9.84
2023-03-04T15:03:28.585Z,9.83
2023-03-04T15:05:58.432Z,9.97
2023-03-04T15:08:29.600Z,9.90
2023-03-04T15:11:02.109Z,9.83
2023-03-04T15:13:50.383Z,9.71
2023-03-04T15:16:23.595Z,9.77
2023-03-04T15:18:58.090Z,9.89
2023-03-04T15:21:33.046Z,9.85
2023-03-04T15:24:01.278Z,9.53
2023-03-04T15:26:31.825Z,9.48
2023-03-04T15:29:00.868Z,9.67
2023-03-04T15:31:29.254Z,9.39
2023-03-04T15:33:58.228Z,9.27
2023-03-04T15:36:27.662Z,9.11
2023-03-04T15:38:57.102Z,9.08
2023-03-04T15:41:26.624Z,9.06
2023-03-04T15:43:54.699Z,9.04
2023-03-04T15:46:22.300Z,9.02
2023-03-04T15:48:49.740Z,9.05
2023-03-04T15:51:22.536Z,9.19
2023-03-04T15:53:55.824Z,8.92
2023-03-04T15:56:29.976Z,8.65
2023-03-04T15:59:09.411Z,8.78
2023-03-04T16:01:38.632Z,8.84
2023-03-04T16:04:05.962Z,8.76
2023-03-04T16:06:33.592Z,8.43
2023-03-04T16:09:01.215Z,8.47
2023-03-04T16:11:33.642Z,8.47
2023-03-04T16:14:00.823Z,8.66
2023-03-04T16:16:27.737Z,8.65
2023-03-04T16:18:54.610Z,8.72
2023-03-04T16:21:25.310Z,8.76
2023-03-04T16:23:54.566Z,8.94
2023-03-04T16:26:25.082Z,8.79
2023-03-04T16:28:53.448Z,8.63
2023-03-04T16:31:21.932Z,8.74
2023-03-04T16:33:49.091Z,8.96
2023-03-04T16:36:29.356Z,9.14
2023-03-04T16:39:02.667Z,8.75
2023-03-04T16:41:35.738Z,8.57
2023-03-04T16:44:05.966Z,8.44
2023-03-04T16:46:35.138Z,8.51
2023-03-04T16:49:02.035Z,8.37
2023-03-04T16:51:30.522Z,8.57
2023-03-04T16:54:01.192Z,8.47
2023-03-04T16:56:28.458Z,8.38
2023-03-04T16:58:57.946Z,8.40
2023-03-04T17:01:31.725Z,8.43
2023-03-04T17:04:01.043Z,8.39
2023-03-04T17:06:28.295Z,8.32
2023-03-04T17:08:55.168Z,8.10
2023-03-04T17:11:23.927Z,8.27
2023-03-04T17:13:51.889Z,8.12
2023-03-04T17:16:19.261Z,8.22
2023-03-04T17:18:46.369Z,8.13
2023-03-04T17:21:20.374Z,8.36
2023-03-04T17:23:47.714Z,8.25
2023-03-04T17:26:15.569Z,8.30
2023-03-04T17:28:43.196Z,8.38
2023-03-04T17:31:13.480Z,8.27
2023-03-04T17:33:40.576Z,8.35
2023-03-04T17:36:13.025Z,8.41
2023-03-04T17:38:40.270Z,8.30
2023-03-04T17:41:15.742Z,8.34
2023-03-04T17:43:51.832Z,7.81
2023-03-04T17:46:23.755Z,7.41
2023-03-04T17:48:56.102Z,7.53
2023-03-04T17:51:36.279Z,7.65
2023-03-04T17:54:06.002Z,7.87
2023-03-04T17:56:37.889Z,7.84
2023-03-04T17:59:09.368Z,7.75
2023-03-04T18:01:38.992Z,7.76
2023-03-04T18:04:11.171Z,7.71
2023-03-04T18:06:38.674Z,7.64
2023-03-04T18:09:09.280Z,7.65
2023-03-04T18:11:39.443Z,7.55
2023-03-04T18:14:07.519Z,7.49
2023-03-04T18:16:34.932Z,7.45
2023-03-04T18:19:05.799Z,7.39
2023-03-04T18:21:33.165Z,7.43
2023-03-04T18:24:00.219Z,7.60
2023-03-04T18:26:28.229Z,7.51
2023-03-04T18:28:56.828Z,7.65
2023-03-04T18:31:31.505Z,7.87
2023-03-04T18:34:04.070Z,7.35
2023-03-04T18:36:33.721Z,7.35
2023-03-04T18:39:05.231Z,7.33
2023-03-04T18:41:32.202Z,7.54
2023-03-04T18:43:59.441Z,7.46
2023-03-04T18:46:50.685Z,7.40
2023-03-04T18:49:20.213Z,7.24
2023-03-04T18:51:50.208Z,7.35
2023-03-04T18:54:19.368Z,7.23
2023-03-04T18:56:57.527Z,7.20
2023-03-04T18:59:37.173Z,7.24
2023-03-04T19:02:13.748Z,7.23
2023-03-04T19:04:43.297Z,7.41
2023-03-04T19:07:12.645Z,7.37
2023-03-04T19:09:39.626Z,7.41
2023-03-04T19:12:06.689Z,7.27
2023-03-04T19:14:33.887Z,7.29
2023-03-04T19:17:00.977Z,7.18
2023-03-04T19:19:27.918Z,7.06
2023-03-04T19:21:57.175Z,7.19
2023-03-04T19:24:26.693Z,7.04
2023-03-04T19:26:55.863Z,6.96
2023-03-04T19:29:22.738Z,7.06
2023-03-04T19:31:49.956Z,6.92
2023-03-04T19:34:16.958Z,6.85
2023-03-04T19:36:44.191Z,6.87
2023-03-04T19:39:19.846Z,6.84
2023-03-04T19:41:49.218Z,6.62
2023-03-04T19:44:17.455Z,6.72
2023-03-04T19:46:44.448Z,6.66
2023-03-04T19:49:11.614Z,6.55
2023-03-04T19:51:38.526Z,6.53
2023-03-04T19:54:05.667Z,6.28
2023-03-04T19:56:32.584Z,6.22
2023-03-04T19:58:59.709Z,6.19
2023-03-04T20:01:29.173Z,6.24
2023-03-04T20:04:02.175Z,6.22
2023-03-04T20:06:31.893Z,6.40
2023-03-04T20:09:01.015Z,6.25
2023-03-04T20:11:32.116Z,6.14
2023-03-04T20:14:04.759Z,6.19
2023-03-04T20:16:36.463Z,6.27
2023-03-04T20:19:03.746Z,6.13
2023-03-04T20:21:37.675Z,6.03
2023-03-04T20:24:23.655Z,6.02
2023-03-04T20:26:51.992Z,6.07
2023-03-04T20:29:19.397Z,5.90
2023-03-04T20:31:49.902Z,6.02
2023-03-04T20:34:17.292Z,6.18
2023-03-04T20:36:47.080Z,6.23
2023-03-04T20:39:30.287Z,6.12
2023-03-04T20:42:03.980Z,6.19
2023-03-04T20:44:31.754Z,6.34
2023-03-04T20:46:59.147Z,6.28
2023-03-04T20:49:29.367Z,6.45
2023-03-04T20:52:06.426Z,6.40
2023-03-04T20:54:38.624Z,6.39
2023-03-04T20:57:11.712Z,6.32
2023-03-04T20:59:40.082Z,6.39
2023-03-04T21:02:33.002Z,6.47
2023-03-04T21:05:01.426Z,6.28
2023-03-04T21:07:28.779Z,6.45
2023-03-04T21:09:55.764Z,6.48
2023-03-04T21:12:27.252Z,6.58
2023-03-04T21:14:57.231Z,6.56
2023-03-04T21:17:26.378Z,6.42
2023-03-04T21:19:55.485Z,6.43
2023-03-04T21:22:22.327Z,6.61
2023-03-04T21:24:49.488Z,6.62
2023-03-04T21:27:17.109Z,6.48
2023-03-04T21:29:44.490Z,6.52
2023-03-04T21:32:24.398Z,6.66
2023-03-04T21:34:53.620Z,6.66
2023-03-04T21:37:24.797Z,6.93
2023-03-04T21:39:55.533Z,6.78
2023-03-04T21:42:22.758Z,6.87
2023-03-04T21:44:51.396Z,7.08
2023-03-04T21:47:21.000Z,7.03
2023-03-04T21:49:48.693Z,7.00
2023-03-04T21:52:16.139Z,6.93
2023-03-04T21:54:46.189Z,7.07
2023-03-04T21:57:14.398Z,6.74
2023-03-04T21:59:44.254Z,6.85
2023-03-04T22:02:17.618Z,7.02
2023-03-04T22:04:44.890Z,6.98
2023-03-04T22:07:13.062Z,6.75
2023-03-04T22:09:40.339Z,6.70
2023-03-04T22:12:07.714Z,6.80
2023-03-04T22:14:44.250Z,7.06
2023-03-04T22:17:11.535Z,7.06
2023-03-04T22:19:38.615Z,7.03
2023-03-04T22:22:08.687Z,7.11
2023-03-04T22:24:38.499Z,7.19
2023-03-04T22:27:07.826Z,7.18
2023-03-04T22:29:34.687Z,6.92
2023-03-04T22:32:06.280Z,7.18
2023-03-04T22:34:33.227Z,6.97
2023-03-04T22:37:00.227Z,7.12
2023-03-04T22:39:27.219Z,7.28
2023-03-04T22:41:54.132Z,7.22
2023-03-04T22:44:25.664Z,7.36
2023-03-04T22:46:56.305Z,6.91
2023-03-04T22:49:26.330Z,6.88
2023-03-04T22:51:53.387Z,6.99
2023-03-04T22:54:20.361Z,6.98
2023-03-04T22:56:50.035Z,7.07
2023-03-04T22:59:19.525Z,6.94
2023-03-04T23:01:46.530Z,6.80
2023-03-04T23:04:13.422Z,6.83
2023-03-04T23:06:40.646Z,6.62
2023-03-04T23:09:07.725Z,6.56
2023-03-04T23:11:35.764Z,6.35
2023-03-04T23:14:07.324Z,6.30
2023-03-04T23:16:39.484Z,6.36
2023-03-04T23:19:15.268Z,6.52
2023-03-04T23:21:42.901Z,6.31
2023-03-04T23:24:12.169Z,6.10
2023-03-04T23:26:40.985Z,6.17
2023-03-04T23:29:12.386Z,6.20
2023-03-04T23:31:39.370Z,6.46
2023-03-04T23:34:08.868Z,6.60
2023-03-04T23:36:42.482Z,6.31
2023-03-04T23:39:13.183Z,6.32
2023-03-04T23:41:40.332Z,6.27
2023-03-04T23:44:08.368Z,6.37
2023-03-04T23:46:38.616Z,6.35
2023-03-04T23:49:12.344Z,6.46
2023-03-04T23:51:40.848Z,6.34
2023-03-04T23:54:10.849Z,6.24
2023-03-04T23:56:40.310Z,6.19
2023-03-04T23:59:07.918Z,6.41
